Time,TemperatureF,DewpointF,PressureIn,WindDirection,WindDirectionDegrees,WindSpeedMPH,WindSpeedGustMPH,Humidity,HourlyPrecipIn,Conditions,Clouds,dailyrainin,SolarRadiationWatts/m^2,SoftwareType,DateUTC
2013-07-17 00:01:00,78.1,69.1,30.18,South,191,0.0,1.0,74,0.00,,,0.00,0.0,meteohub,2013-07-17 04:01:00,
2013-07-17 00:02:00,78.1,69.1,30.18,South,191,0.0,1.0,74,0.00,,,0.00,0.0,meteohub,2013-07-17 04:02:00,
2013-07-17 00:07:00,78.1,69.1,30.18,SSW,213,0.0,1.0,74,0.00,,,0.00,0.0,meteohub,2013-07-17 04:07:00,
2013-07-17 00:12:00,78.1,69.4,30.19,SSW,213,0.0,2.0,75,0.00,,,0.00,0.0,meteohub,2013-07-17 04:12:00,
2013-07-17 00:15:00,77.9,68.9,30.18,SSW,197,1.0,2.0,74,0.00,,,0.00,0.0,meteohub,2013-07-17 04:15:00,
2013-07-17 00:20:00,77.9,68.9,30.18,SSE,162,1.0,2.0,74,0.00,,,0.00,0.0,meteohub,2013-07-17 04:20:00,
2013-07-17 00:25:00,77.9,68.9,30.18,South,191,0.0,2.0,74,0.00,,,0.00,0.0,meteohub,2013-07-17 04:25:00,
2013-07-17 00:30:00,77.9,68.9,30.18,WSW,240,0.0,2.0,74,0.00,,,0.00,0.0,meteohub,2013-07-17 04:30:00,
2013-07-17 00:35:00,77.7,70.3,30.18,WSW,240,0.0,2.0,78,0.00,,,0.00,0.0,meteohub,2013-07-17 04:35:00,
2013-07-17 00:40:00,77.4,69.3,30.18,WSW,238,0.0,2.0,76,0.00,,,0.00,0.0,meteohub,2013-07-17 04:40:00,
2013-07-17 00:45:00,77.2,69.4,30.18,WSW,238,0.0,1.0,77,0.00,,,0.00,0.0,meteohub,2013-07-17 04:45:00,
2013-07-17 00:50:00,77.2,68.7,30.18,WSW,238,0.0,2.0,75,0.00,,,0.00,0.0,meteohub,2013-07-17 04:50:00,
2013-07-17 00:55:00,77.2,68.7,30.18,WSW,238,0.0,2.0,75,0.00,,,0.00,0.0,meteohub,2013-07-17 04:55:00,
2013-07-17 00:58:00,77.4,68.9,30.17,WSW,240,0.0,2.0,75,0.00,,,0.00,0.0,meteohub,2013-07-17 04:58:00,
2013-07-17 01:01:00,77.4,68.9,30.17,WSW,240,0.0,3.0,75,0.00,,,0.00,0.0,meteohub,2013-07-17 05:01:00,
2013-07-17 01:06:00,77.5,68.5,30.17,South,180,0.0,3.0,74,0.00,,,0.00,0.0,meteohub,2013-07-17 05:06:00,
2013-07-17 01:11:00,77.5,68.5,30.18,SE,138,0.0,3.0,74,0.00,,,0.00,0.0,meteohub,2013-07-17 05:11:00,
2013-07-17 01:16:00,77.7,68.7,30.18,SE,138,0.0,4.0,74,0.00,,,0.00,0.0,meteohub,2013-07-17 05:16:00,
2013-07-17 01:21:00,77.7,68.7,30.18,SE,139,0.0,4.0,74,0.00,,,0.00,0.0,meteohub,2013-07-17 05:21:00,
2013-07-17 01:26:00,77.7,68.7,30.18,SE,140,1.0,4.0,74,0.00,,,0.00,0.0,meteohub,2013-07-17 05:26:00,
2013-07-17 01:31:00,77.7,68.7,30.18,SE,133,0.0,2.0,74,0.00,,,0.00,0.0,meteohub,2013-07-17 05:31:00,
2013-07-17 01:36:00,77.7,68.7,30.18,SE,133,0.0,2.0,74,0.00,,,0.00,0.0,meteohub,2013-07-17 05:36:00,
2013-07-17 01:41:00,77.5,68.5,30.18,SSE,149,0.0,2.0,74,0.00,,,0.00,0.0,meteohub,2013-07-17 05:41:00,
2013-07-17 01:46:00,77.5,68.5,30.18,SSE,149,0.0,1.0,74,0.00,,,0.00,0.0,meteohub,2013-07-17 05:46:00,
2013-07-17 01:51:00,77.4,68.4,30.18,SSE,149,0.0,1.0,74,0.00,,,0.00,0.0,meteohub,2013-07-17 05:51:00,
2013-07-17 01:57:00,77.4,68.9,30.17,SSE,149,0.0,1.0,75,0.00,,,0.00,0.0,meteohub,2013-07-17 05:57:00,
2013-07-17 02:02:00,77.2,68.2,30.17,SSE,153,1.0,1.0,74,0.00,,,0.00,0.0,meteohub,2013-07-17 06:02:00,
2013-07-17 02:07:00,77.2,68.7,30.17,South,186,0.0,2.0,75,0.00,,,0.00,0.0,meteohub,2013-07-17 06:07:00,
2013-07-17 02:12:00,77.2,68.2,30.17,SSW,205,0.0,2.0,74,0.00,,,0.00,0.0,meteohub,2013-07-17 06:12:00,
2013-07-17 02:17:00,77.2,68.7,30.17,SSW,211,0.0,2.0,75,0.00,,,0.00,0.0,meteohub,2013-07-17 06:17:00,
2013-07-17 02:22:00,77.0,68.5,30.17,SSE,156,0.0,2.0,75,0.00,,,0.00,0.0,meteohub,2013-07-17 06:22:00,
2013-07-17 02:27:00,77.0,68.5,30.17,SSE,156,0.0,2.0,75,0.00,,,0.00,0.0,meteohub,2013-07-17 06:27:00,
2013-07-17 02:32:00,76.8,68.4,30.17,West,265,0.0,2.0,75,0.00,,,0.00,0.0,meteohub,2013-07-17 06:32:00,
2013-07-17 02:37:00,76.6,69.6,30.17,West,265,0.0,2.0,79,0.00,,,0.00,0.0,meteohub,2013-07-17 06:37:00,
2013-07-17 02:42:00,76.3,69.6,30.17,West,265,0.0,2.0,80,0.00,,,0.00,0.0,meteohub,2013-07-17 06:42:00,
2013-07-17 02:47:00,75.6,69.3,30.17,West,265,0.0,1.0,81,0.00,,,0.00,0.0,meteohub,2013-07-17 06:47:00,
2013-07-17 02:52:00,75.0,69.1,30.17,West,265,0.0,1.0,82,0.00,,,0.00,0.0,meteohub,2013-07-17 06:52:00,
2013-07-17 02:57:00,74.8,68.9,30.17,West,265,0.0,1.0,82,0.00,,,0.00,0.0,meteohub,2013-07-17 06:57:00,
2013-07-17 03:02:00,74.5,68.5,30.17,West,265,0.0,0.0,82,0.00,,,0.00,0.0,meteohub,2013-07-17 07:02:00,
2013-07-17 03:07:00,74.3,68.7,30.17,West,265,0.0,0.0,83,0.00,,,0.00,0.0,meteohub,2013-07-17 07:07:00,
2013-07-17 03:12:00,74.1,68.2,30.17,West,265,0.0,0.0,82,0.00,,,0.00,0.0,meteohub,2013-07-17 07:12:00,
2013-07-17 03:17:00,74.1,68.5,30.17,West,265,0.0,0.0,83,0.00,,,0.00,0.0,meteohub,2013-07-17 07:17:00,
2013-07-17 03:22:00,74.1,68.5,30.17,West,265,0.0,0.0,83,0.00,,,0.00,0.0,meteohub,2013-07-17 07:22:00,
2013-07-17 03:27:00,74.1,68.5,30.17,West,265,0.0,0.0,83,0.00,,,0.00,0.0,meteohub,2013-07-17 07:27:00,
2013-07-17 03:32:00,73.9,68.4,30.17,West,265,0.0,0.0,83,0.00,,,0.00,0.0,meteohub,2013-07-17 07:32:00,
2013-07-17 03:37:00,73.9,68.7,30.17,West,265,0.0,0.0,84,0.00,,,0.00,0.0,meteohub,2013-07-17 07:37:00,
2013-07-17 03:42:00,73.9,69.1,30.17,West,265,0.0,0.0,85,0.00,,,0.00,0.0,meteohub,2013-07-17 07:42:00,
2013-07-17 03:47:00,73.8,69.3,30.17,West,265,0.0,0.0,86,0.00,,,0.00,0.0,meteohub,2013-07-17 07:47:00,
2013-07-17 03:52:00,73.6,69.1,30.17,West,265,0.0,0.0,86,0.00,,,0.00,0.0,meteohub,2013-07-17 07:52:00,
2013-07-17 03:57:00,73.2,69.1,30.17,West,265,0.0,0.0,87,0.00,,,0.00,0.0,meteohub,2013-07-17 07:57:00,
2013-07-17 04:02:00,73.0,68.9,30.17,West,265,0.0,1.0,87,0.00,,,0.00,0.0,meteohub,2013-07-17 08:02:00,
2013-07-17 04:07:00,72.9,68.7,30.17,West,265,0.0,1.0,87,0.00,,,0.00,0.0,meteohub,2013-07-17 08:07:00,
2013-07-17 04:12:00,72.7,68.5,30.18,West,265,0.0,0.0,87,0.00,,,0.00,0.0,meteohub,2013-07-17 08:12:00,
2013-07-17 04:17:00,72.7,68.5,30.18,West,265,0.0,0.0,87,0.00,,,0.00,0.0,meteohub,2013-07-17 08:17:00,
2013-07-17 04:22:00,72.7,68.5,30.18,West,265,0.0,0.0,87,0.00,,,0.00,0.0,meteohub,2013-07-17 08:22:00,
2013-07-17 04:27:00,72.7,68.5,30.18,West,265,0.0,1.0,87,0.00,,,0.00,0.0,meteohub,2013-07-17 08:27:00,
2013-07-17 04:32:00,72.7,68.5,30.18,West,265,0.0,1.0,87,0.00,,,0.00,0.0,meteohub,2013-07-17 08:32:00,
2013-07-17 04:37:00,72.9,68.7,30.18,West,265,0.0,1.0,87,0.00,,,0.00,0.0,meteohub,2013-07-17 08:37:00,
2013-07-17 04:42:00,72.9,68.7,30.18,West,265,0.0,0.0,87,0.00,,,0.00,0.0,meteohub,2013-07-17 08:42:00,
2013-07-17 04:47:00,72.9,68.7,30.18,West,265,0.0,0.0,87,0.00,,,0.00,0.0,meteohub,2013-07-17 08:47:00,
2013-07-17 04:52:00,72.7,68.5,30.18,West,265,0.0,0.0,87,0.00,,,0.00,0.0,meteohub,2013-07-17 08:52:00,
2013-07-17 04:57:00,72.7,68.5,30.18,West,265,0.0,0.0,87,0.00,,,0.00,0.0,meteohub,2013-07-17 08:57:00,
2013-07-17 05:02:00,72.7,68.5,30.19,West,265,0.0,0.0,87,0.00,,,0.00,0.0,meteohub,2013-07-17 09:02:00,
2013-07-17 05:07:00,72.9,68.0,30.19,South,171,0.0,1.0,85,0.00,,,0.00,0.0,meteohub,2013-07-17 09:07:00,
2013-07-17 05:12:00,73.0,67.6,30.19,South,171,0.0,1.0,83,0.00,,,0.00,0.0,meteohub,2013-07-17 09:12:00,
2013-07-17 05:17:00,73.6,68.2,30.19,South,171,0.0,1.0,83,0.00,,,0.00,0.0,meteohub,2013-07-17 09:17:00,
2013-07-17 05:22:00,73.8,68.4,30.19,South,171,0.0,1.0,83,0.00,,,0.00,0.0,meteohub,2013-07-17 09:22:00,
2013-07-17 05:27:00,73.8,68.0,30.19,South,171,0.0,1.0,82,0.00,,,0.00,0.0,meteohub,2013-07-17 09:27:00,
2013-07-17 05:32:00,73.9,69.1,30.19,South,171,0.0,1.0,85,0.00,,,0.00,0.0,meteohub,2013-07-17 09:32:00,
2013-07-17 05:37:00,73.8,68.9,30.19,South,171,0.0,1.0,85,0.00,,,0.00,0.0,meteohub,2013-07-17 09:37:00,
2013-07-17 05:42:00,73.6,68.7,30.19,South,171,0.0,1.0,85,0.00,,,0.00,5.0,meteohub,2013-07-17 09:42:00,
2013-07-17 05:47:00,73.2,69.1,30.20,South,171,1.0,1.0,87,0.00,,,0.00,7.0,meteohub,2013-07-17 09:47:00,
2013-07-17 05:52:00,72.9,69.1,30.20,SSE,154,0.0,2.0,88,0.00,,,0.00,9.0,meteohub,2013-07-17 09:52:00,
2013-07-17 05:57:00,72.7,68.9,30.20,SSE,151,0.0,2.0,88,0.00,,,0.00,11.0,meteohub,2013-07-17 09:57:00,
2013-07-17 06:02:00,72.5,68.7,30.20,SSE,151,0.0,2.0,88,0.00,,,0.00,12.0,meteohub,2013-07-17 10:02:00,
2013-07-17 06:07:00,72.1,68.7,30.20,SSE,151,0.0,1.0,89,0.00,,,0.00,16.0,meteohub,2013-07-17 10:07:00,
2013-07-17 06:12:00,72.1,68.7,30.20,SSE,151,0.0,0.0,89,0.00,,,0.00,18.0,meteohub,2013-07-17 10:12:00,
2013-07-17 06:17:00,72.0,68.9,30.20,SSE,151,0.0,0.0,90,0.00,,,0.00,21.0,meteohub,2013-07-17 10:17:00,
2013-07-17 06:22:00,72.0,68.9,30.20,SSE,151,0.0,0.0,90,0.00,,,0.00,23.0,meteohub,2013-07-17 10:22:00,
2013-07-17 06:27:00,72.0,69.3,30.20,SSE,151,0.0,0.0,91,0.00,,,0.00,26.0,meteohub,2013-07-17 10:27:00,
2013-07-17 06:32:00,72.0,69.3,30.20,SSE,151,0.0,0.0,91,0.00,,,0.00,28.0,meteohub,2013-07-17 10:32:00,
2013-07-17 06:37:00,72.0,68.9,30.20,SSE,151,0.0,0.0,90,0.00,,,0.00,32.0,meteohub,2013-07-17 10:37:00,
2013-07-17 06:42:00,71.8,69.1,30.20,SSE,151,0.0,0.0,91,0.00,,,0.00,35.0,meteohub,2013-07-17 10:42:00,
2013-07-17 06:47:00,71.8,69.1,30.20,SSE,151,0.0,0.0,91,0.00,,,0.00,39.0,meteohub,2013-07-17 10:47:00,
2013-07-17 06:52:00,72.0,69.4,30.20,SSE,151,0.0,0.0,92,0.00,,,0.00,42.0,meteohub,2013-07-17 10:52:00,
2013-07-17 06:57:00,72.0,69.4,30.20,SSE,151,0.0,0.0,92,0.00,,,0.00,44.0,meteohub,2013-07-17 10:57:00,
2013-07-17 07:02:00,72.0,69.4,30.20,SSE,151,0.0,0.0,92,0.00,,,0.00,46.0,meteohub,2013-07-17 11:02:00,
2013-07-17 07:07:00,72.1,69.6,30.21,SSE,151,0.0,0.0,92,0.00,,,0.00,49.0,meteohub,2013-07-17 11:07:00,
2013-07-17 07:12:00,72.3,69.8,30.20,SSE,151,0.0,0.0,92,0.00,,,0.00,53.0,meteohub,2013-07-17 11:12:00,
2013-07-17 07:17:00,72.5,69.8,30.21,SSE,151,0.0,0.0,91,0.00,,,0.00,56.0,meteohub,2013-07-17 11:17:00,
2013-07-17 07:22:00,72.7,70.0,30.21,SSE,151,0.0,0.0,91,0.00,,,0.00,58.0,meteohub,2013-07-17 11:22:00,
2013-07-17 07:27:00,72.9,70.2,30.21,SSE,151,0.0,0.0,91,0.00,,,0.00,62.0,meteohub,2013-07-17 11:27:00,
2013-07-17 07:32:00,73.0,70.3,30.21,SSE,151,0.0,0.0,91,0.00,,,0.00,65.0,meteohub,2013-07-17 11:32:00,
2013-07-17 07:37:00,73.2,70.5,30.21,SSE,151,0.0,0.0,91,0.00,,,0.00,67.0,meteohub,2013-07-17 11:37:00,
2013-07-17 07:42:00,73.4,70.5,30.21,SSE,151,0.0,0.0,91,0.00,,,0.00,69.0,meteohub,2013-07-17 11:42:00,
2013-07-17 07:47:00,73.6,70.7,30.21,SSE,151,0.0,0.0,91,0.00,,,0.00,70.0,meteohub,2013-07-17 11:47:00,
2013-07-17 07:52:00,73.8,70.3,30.21,SSE,151,0.0,0.0,89,0.00,,,0.00,62.0,meteohub,2013-07-17 11:52:00,
2013-07-17 07:57:00,74.1,70.7,30.22,SSE,151,0.0,0.0,89,0.00,,,0.00,63.0,meteohub,2013-07-17 11:57:00,
2013-07-17 08:02:00,74.3,70.5,30.21,SSE,151,0.0,0.0,88,0.00,,,0.00,88.0,meteohub,2013-07-17 12:02:00,
2013-07-17 08:07:00,74.7,70.9,30.21,SSE,151,0.0,0.0,88,0.00,,,0.00,81.0,meteohub,2013-07-17 12:07:00,
2013-07-17 08:12:00,74.8,71.1,30.21,SSE,151,0.0,0.0,88,0.00,,,0.00,125.0,meteohub,2013-07-17 12:12:00,
2013-07-17 08:17:00,75.2,71.1,30.22,SSE,151,0.0,0.0,87,0.00,,,0.00,90.0,meteohub,2013-07-17 12:17:00,
2013-07-17 08:22:00,75.6,71.4,30.22,SSE,151,0.0,0.0,87,0.00,,,0.00,97.0,meteohub,2013-07-17 12:22:00,
2013-07-17 08:27:00,75.9,71.8,30.22,SSE,151,0.0,0.0,87,0.00,,,0.00,165.0,meteohub,2013-07-17 12:27:00,
2013-07-17 08:32:00,76.1,71.2,30.22,SSE,151,1.0,0.0,85,0.00,,,0.00,237.0,meteohub,2013-07-17 12:32:00,
2013-07-17 08:37:00,76.5,72.0,30.22,SSE,151,0.0,1.0,86,0.00,,,0.00,376.0,meteohub,2013-07-17 12:37:00,
2013-07-17 08:42:00,76.8,71.6,30.22,SSE,151,0.0,1.0,84,0.00,,,0.00,413.0,meteohub,2013-07-17 12:42:00,
2013-07-17 08:47:00,77.5,72.3,30.22,SSE,151,0.0,1.0,84,0.00,,,0.00,432.0,meteohub,2013-07-17 12:47:00,
2013-07-17 08:52:00,78.3,72.3,30.22,SSE,151,0.0,1.0,82,0.00,,,0.00,446.0,meteohub,2013-07-17 12:52:00,
2013-07-17 08:57:00,79.0,73.0,30.22,SSE,151,0.0,1.0,82,0.00,,,0.00,462.0,meteohub,2013-07-17 12:57:00,
2013-07-17 09:02:00,79.5,72.5,30.22,SSE,151,0.0,1.0,79,0.00,,,0.00,468.0,meteohub,2013-07-17 13:02:00,
2013-07-17 09:07:00,80.2,73.0,30.22,SSE,151,0.0,1.0,79,0.00,,,0.00,497.0,meteohub,2013-07-17 13:07:00,
2013-07-17 09:12:00,80.8,72.9,30.22,SSE,151,1.0,1.0,77,0.00,,,0.00,512.0,meteohub,2013-07-17 13:12:00,
2013-07-17 09:17:00,81.1,72.9,30.21,SSE,151,0.0,1.0,76,0.00,,,0.00,522.0,meteohub,2013-07-17 13:17:00,
2013-07-17 09:22:00,81.7,73.4,30.21,SSE,151,0.0,1.0,76,0.00,,,0.00,541.0,meteohub,2013-07-17 13:22:00,
2013-07-17 09:27:00,82.2,73.9,30.21,SSE,151,0.0,1.0,76,0.00,,,0.00,554.0,meteohub,2013-07-17 13:27:00,
2013-07-17 09:32:00,82.9,74.1,30.21,SSE,151,0.0,1.0,75,0.00,,,0.00,570.0,meteohub,2013-07-17 13:32:00,
2013-07-17 09:37:00,83.7,74.1,30.21,SSE,151,0.0,1.0,73,0.00,,,0.00,578.0,meteohub,2013-07-17 13:37:00,
2013-07-17 09:42:00,83.8,74.3,30.20,SSE,151,0.0,1.0,73,0.00,,,0.00,596.0,meteohub,2013-07-17 13:42:00,
2013-07-17 09:47:00,84.0,73.6,30.21,SSE,151,0.0,1.0,71,0.00,,,0.00,608.0,meteohub,2013-07-17 13:47:00,
2013-07-17 09:52:00,84.4,73.9,30.21,SSE,151,0.0,1.0,71,0.00,,,0.00,626.0,meteohub,2013-07-17 13:52:00,
2013-07-17 09:57:00,84.9,74.5,30.21,SE,146,0.0,1.0,71,0.00,,,0.00,640.0,meteohub,2013-07-17 13:57:00,
2013-07-17 10:02:00,85.3,75.2,30.20,SE,145,0.0,1.0,72,0.00,,,0.00,654.0,meteohub,2013-07-17 14:02:00,
2013-07-17 10:07:00,85.3,74.8,30.20,SE,146,0.0,1.0,71,0.00,,,0.00,647.0,meteohub,2013-07-17 14:07:00,
2013-07-17 10:12:00,85.5,75.0,30.20,SE,146,0.0,1.0,71,0.00,,,0.00,580.0,meteohub,2013-07-17 14:12:00,
2013-07-17 10:17:00,85.6,75.6,30.20,SE,146,0.0,1.0,72,0.00,,,0.00,512.0,meteohub,2013-07-17 14:17:00,
2013-07-17 10:22:00,85.5,75.4,30.20,SE,146,0.0,1.0,72,0.00,,,0.00,561.0,meteohub,2013-07-17 14:22:00,
2013-07-17 10:27:00,85.5,75.7,30.20,SE,146,0.0,1.0,73,0.00,,,0.00,559.0,meteohub,2013-07-17 14:27:00,
2013-07-17 10:32:00,85.5,75.0,30.19,SE,146,0.0,1.0,71,0.00,,,0.00,613.0,meteohub,2013-07-17 14:32:00,
2013-07-17 10:37:00,85.5,74.5,30.20,SE,140,0.0,1.0,70,0.00,,,0.00,663.0,meteohub,2013-07-17 14:37:00,
2013-07-17 10:42:00,85.6,74.7,30.19,SE,140,0.0,2.0,70,0.00,,,0.00,715.0,meteohub,2013-07-17 14:42:00,
2013-07-17 10:47:00,85.6,75.2,30.19,SE,140,0.0,2.0,71,0.00,,,0.00,745.0,meteohub,2013-07-17 14:47:00,
2013-07-17 10:52:00,85.8,75.4,30.19,SE,139,0.0,2.0,71,0.00,,,0.00,731.0,meteohub,2013-07-17 14:52:00,
2013-07-17 10:57:00,86.2,73.9,30.19,SE,138,0.0,2.0,67,0.00,,,0.00,756.0,meteohub,2013-07-17 14:57:00,
2013-07-17 11:02:00,86.4,74.1,30.19,SE,138,0.0,2.0,67,0.00,,,0.00,768.0,meteohub,2013-07-17 15:02:00,
2013-07-17 11:07:00,86.5,73.4,30.19,SE,138,0.0,2.0,65,0.00,,,0.00,779.0,meteohub,2013-07-17 15:07:00,
2013-07-17 11:12:00,86.7,73.6,30.19,SE,138,0.0,2.0,65,0.00,,,0.00,789.0,meteohub,2013-07-17 15:12:00,
2013-07-17 11:17:00,86.7,74.5,30.19,SE,144,0.0,1.0,67,0.00,,,0.00,805.0,meteohub,2013-07-17 15:17:00,
2013-07-17 11:22:00,87.1,74.8,30.19,SE,144,0.0,2.0,67,0.00,,,0.00,830.0,meteohub,2013-07-17 15:22:00,
2013-07-17 11:27:00,87.4,74.7,30.19,SE,144,0.0,2.0,66,0.00,,,0.00,828.0,meteohub,2013-07-17 15:27:00,
2013-07-17 11:32:00,87.6,75.4,30.19,SSE,167,1.0,2.0,67,0.00,,,0.00,831.0,meteohub,2013-07-17 15:32:00,
2013-07-17 11:37:00,87.6,74.3,30.19,SSE,167,0.0,2.0,65,0.00,,,0.00,601.0,meteohub,2013-07-17 15:37:00,
2013-07-17 11:42:00,87.6,75.4,30.18,SSE,167,0.0,2.0,67,0.00,,,0.00,842.0,meteohub,2013-07-17 15:42:00,
2013-07-17 11:47:00,87.4,75.9,30.18,SSE,167,0.0,1.0,69,0.00,,,0.00,805.0,meteohub,2013-07-17 15:47:00,
2013-07-17 11:52:00,87.6,76.6,30.18,SE,138,1.0,1.0,70,0.00,,,0.00,761.0,meteohub,2013-07-17 15:52:00,
2013-07-17 11:57:00,88.0,77.9,30.18,SE,138,0.0,1.0,72,0.00,,,0.00,636.0,meteohub,2013-07-17 15:57:00,
2013-07-17 12:02:00,88.3,77.7,30.18,SE,142,0.0,1.0,71,0.00,,,0.00,807.0,meteohub,2013-07-17 16:02:00,
2013-07-17 12:07:00,88.5,76.1,30.18,WNW,283,0.0,1.0,67,0.00,,,0.00,835.0,meteohub,2013-07-17 16:07:00,
2013-07-17 12:12:00,88.3,76.5,30.17,SW,232,1.0,3.0,68,0.00,,,0.00,838.0,meteohub,2013-07-17 16:12:00,
2013-07-17 12:17:00,88.5,75.7,30.17,South,169,1.0,3.0,66,0.00,,,0.00,849.0,meteohub,2013-07-17 16:17:00,
2013-07-17 12:22:00,88.9,75.2,30.17,WSW,256,0.0,3.0,64,0.00,,,0.00,860.0,meteohub,2013-07-17 16:22:00,
2013-07-17 12:27:00,88.9,75.2,30.17,WSW,247,0.0,2.0,64,0.00,,,0.00,860.0,meteohub,2013-07-17 16:27:00,
2013-07-17 12:32:00,89.2,75.9,30.17,WSW,238,0.0,2.0,65,0.00,,,0.00,860.0,meteohub,2013-07-17 16:32:00,
2013-07-17 12:37:00,89.1,76.3,30.17,NE,38,0.0,2.0,66,0.00,,,0.00,870.0,meteohub,2013-07-17 16:37:00,
2013-07-17 12:42:00,89.4,76.6,30.17,NE,38,0.0,2.0,66,0.00,,,0.00,902.0,meteohub,2013-07-17 16:42:00,
2013-07-17 12:47:00,89.6,76.6,30.17,WNW,294,0.0,2.0,66,0.00,,,0.00,854.0,meteohub,2013-07-17 16:47:00,
2013-07-17 12:52:00,90.0,75.7,30.16,South,184,1.0,2.0,63,0.00,,,0.00,867.0,meteohub,2013-07-17 16:52:00,
2013-07-17 12:57:00,90.5,76.1,30.16,South,184,0.0,2.0,63,0.00,,,0.00,912.0,meteohub,2013-07-17 16:57:00,
2013-07-17 13:02:00,90.7,75.9,30.16,South,177,0.0,2.0,62,0.00,,,0.00,902.0,meteohub,2013-07-17 17:02:00,
2013-07-17 13:07:00,90.7,75.9,30.16,West,277,1.0,3.0,62,0.00,,,0.00,904.0,meteohub,2013-07-17 17:07:00,
2013-07-17 13:12:00,90.7,76.8,30.16,West,267,0.0,3.0,64,0.00,,,0.00,874.0,meteohub,2013-07-17 17:12:00,
2013-07-17 13:17:00,90.9,76.5,30.15,SSW,207,0.0,3.0,63,0.00,,,0.00,888.0,meteohub,2013-07-17 17:17:00,
2013-07-17 13:22:00,91.0,77.2,30.15,SSW,207,0.0,2.0,64,0.00,,,0.00,898.0,meteohub,2013-07-17 17:22:00,
2013-07-17 13:27:00,91.2,76.8,30.15,West,271,2.0,2.0,63,0.00,,,0.00,904.0,meteohub,2013-07-17 17:27:00,
2013-07-17 13:32:00,91.2,78.3,30.15,West,270,0.0,2.0,66,0.00,,,0.00,851.0,meteohub,2013-07-17 17:32:00,
2013-07-17 13:37:00,91.2,76.8,30.15,South,191,1.0,2.0,63,0.00,,,0.00,856.0,meteohub,2013-07-17 17:37:00,
2013-07-17 13:42:00,91.6,78.1,30.14,East,84,0.0,3.0,65,0.00,,,0.00,851.0,meteohub,2013-07-17 17:42:00,
2013-07-17 13:47:00,91.6,77.2,30.14,West,271,0.0,3.0,63,0.00,,,0.00,823.0,meteohub,2013-07-17 17:47:00,
2013-07-17 13:52:00,91.2,75.9,30.14,WNW,289,1.0,3.0,61,0.00,,,0.00,817.0,meteohub,2013-07-17 17:52:00,
2013-07-17 13:57:00,90.7,75.9,30.14,WNW,290,0.0,3.0,62,0.00,,,0.00,819.0,meteohub,2013-07-17 17:57:00,
2013-07-17 14:02:00,90.7,75.9,30.14,WNW,289,0.0,3.0,62,0.00,,,0.00,828.0,meteohub,2013-07-17 18:02:00,
2013-07-17 14:07:00,90.9,76.5,30.14,NW,305,0.0,3.0,63,0.00,,,0.00,812.0,meteohub,2013-07-17 18:07:00,
2013-07-17 14:12:00,90.9,77.5,30.13,WNW,298,0.0,2.0,65,0.00,,,0.00,824.0,meteohub,2013-07-17 18:12:00,
2013-07-17 14:17:00,91.0,76.6,30.13,WNW,296,2.0,2.0,63,0.00,,,0.00,807.0,meteohub,2013-07-17 18:17:00,
2013-07-17 14:22:00,91.0,75.7,30.13,WNW,297,0.0,2.0,61,0.00,,,0.00,791.0,meteohub,2013-07-17 18:22:00,
2013-07-17 14:27:00,91.2,75.9,30.13,SW,221,1.0,2.0,61,0.00,,,0.00,789.0,meteohub,2013-07-17 18:27:00,
2013-07-17 14:32:00,91.2,75.9,30.13,WNW,286,0.0,2.0,61,0.00,,,0.00,784.0,meteohub,2013-07-17 18:32:00,
2013-07-17 14:37:00,91.4,76.5,30.13,WNW,288,1.0,2.0,62,0.00,,,0.00,768.0,meteohub,2013-07-17 18:37:00,
2013-07-17 14:42:00,91.2,75.4,30.12,West,263,0.0,2.0,60,0.00,,,0.00,772.0,meteohub,2013-07-17 18:42:00,
2013-07-17 14:47:00,91.0,76.6,30.12,SW,227,1.0,3.0,63,0.00,,,0.00,761.0,meteohub,2013-07-17 18:47:00,
2013-07-17 14:52:00,91.2,75.9,30.12,WNW,301,1.0,3.0,61,0.00,,,0.00,761.0,meteohub,2013-07-17 18:52:00,
2013-07-17 14:57:00,91.2,74.3,30.12,WNW,300,1.0,3.0,58,0.00,,,0.00,738.0,meteohub,2013-07-17 18:57:00,
2013-07-17 15:02:00,91.4,74.5,30.12,NNE,28,0.0,3.0,58,0.00,,,0.00,737.0,meteohub,2013-07-17 19:02:00,
2013-07-17 15:07:00,91.4,74.5,30.11,NE,34,0.0,3.0,58,0.00,,,0.00,724.0,meteohub,2013-07-17 19:07:00,
2013-07-17 15:12:00,91.4,74.5,30.11,East,89,0.0,3.0,58,0.00,,,0.00,714.0,meteohub,2013-07-17 19:12:00,
2013-07-17 15:17:00,91.6,75.7,30.11,East,89,0.0,3.0,60,0.00,,,0.00,700.0,meteohub,2013-07-17 19:17:00,
2013-07-17 15:22:00,91.9,76.6,30.10,WSW,240,4.0,4.0,61,0.00,,,0.00,694.0,meteohub,2013-07-17 19:22:00,
2013-07-17 15:27:00,91.9,75.0,30.10,NW,320,0.0,4.0,58,0.00,,,0.00,680.0,meteohub,2013-07-17 19:27:00,
2013-07-17 15:32:00,91.8,74.3,30.10,West,279,0.0,4.0,57,0.00,,,0.00,691.0,meteohub,2013-07-17 19:32:00,
2013-07-17 15:37:00,91.8,74.8,30.10,West,279,1.0,4.0,58,0.00,,,0.00,657.0,meteohub,2013-07-17 19:37:00,
2013-07-17 15:42:00,91.4,74.5,30.09,WNW,286,0.0,3.0,58,0.00,,,0.00,657.0,meteohub,2013-07-17 19:42:00,
2013-07-17 15:47:00,91.0,74.1,30.09,NW,314,1.0,3.0,58,0.00,,,0.00,643.0,meteohub,2013-07-17 19:47:00,
2013-07-17 15:52:00,90.9,75.0,30.09,West,269,1.0,5.0,60,0.00,,,0.00,628.0,meteohub,2013-07-17 19:52:00,
2013-07-17 15:57:00,90.9,74.1,30.09,WSW,257,1.0,5.0,58,0.00,,,0.00,613.0,meteohub,2013-07-17 19:57:00,
2013-07-17 16:02:00,90.7,74.3,30.09,North,0,0.0,5.0,59,0.00,,,0.00,606.0,meteohub,2013-07-17 20:02:00,
2013-07-17 16:07:00,90.5,74.1,30.09,NNW,329,0.0,3.0,59,0.00,,,0.00,605.0,meteohub,2013-07-17 20:07:00,
2013-07-17 16:12:00,90.5,74.7,30.09,NW,311,0.0,3.0,60,0.00,,,0.00,577.0,meteohub,2013-07-17 20:12:00,
2013-07-17 16:17:00,90.3,75.0,30.09,NW,311,0.0,3.0,61,0.00,,,0.00,570.0,meteohub,2013-07-17 20:17:00,
2013-07-17 16:22:00,90.1,75.9,30.09,NNW,340,0.0,3.0,63,0.00,,,0.00,571.0,meteohub,2013-07-17 20:22:00,
2013-07-17 16:27:00,90.1,76.3,30.09,NW,324,0.0,1.0,64,0.00,,,0.00,90.0,meteohub,2013-07-17 20:27:00,
2013-07-17 16:32:00,89.8,76.5,30.08,NW,324,1.0,1.0,65,0.00,,,0.00,125.0,meteohub,2013-07-17 20:32:00,
2013-07-17 16:37:00,89.8,75.0,30.08,NW,324,0.0,2.0,62,0.00,,,0.00,207.0,meteohub,2013-07-17 20:37:00,
2013-07-17 16:42:00,89.8,77.7,30.08,NW,324,0.0,2.0,68,0.00,,,0.00,100.0,meteohub,2013-07-17 20:42:00,
2013-07-17 16:48:00,89.4,78.3,30.08,NW,324,0.0,2.0,70,0.00,,,0.00,76.0,meteohub,2013-07-17 20:48:00,
2013-07-17 16:53:00,88.9,77.9,30.07,NW,324,0.0,1.0,70,0.00,,,0.00,79.0,meteohub,2013-07-17 20:53:00,
2013-07-17 16:58:00,88.2,78.4,30.07,NW,324,0.0,1.0,73,0.00,,,0.00,88.0,meteohub,2013-07-17 20:58:00,
2013-07-17 17:03:00,87.4,77.7,30.07,NW,324,0.0,1.0,73,0.00,,,0.00,105.0,meteohub,2013-07-17 21:03:00,
2013-07-17 17:08:00,86.9,78.1,30.07,NW,324,0.0,0.0,75,0.00,,,0.00,54.0,meteohub,2013-07-17 21:08:00,
2013-07-17 17:13:00,86.4,77.5,30.06,NW,324,0.0,0.0,75,0.00,,,0.00,111.0,meteohub,2013-07-17 21:13:00,
2013-07-17 17:18:00,85.8,77.4,30.06,NW,324,0.0,0.0,76,0.00,,,0.00,72.0,meteohub,2013-07-17 21:18:00,
2013-07-17 17:23:00,85.6,77.5,30.06,NW,324,0.0,0.0,77,0.00,,,0.00,54.0,meteohub,2013-07-17 21:23:00,
2013-07-17 17:28:00,85.5,77.0,30.06,NW,324,0.0,0.0,76,0.00,,,0.00,65.0,meteohub,2013-07-17 21:28:00,
2013-07-17 17:33:00,85.6,77.2,30.06,NW,324,0.0,1.0,76,0.00,,,0.00,146.0,meteohub,2013-07-17 21:33:00,
2013-07-17 17:38:00,85.8,77.0,30.05,NW,324,0.0,1.0,75,0.00,,,0.00,81.0,meteohub,2013-07-17 21:38:00,
2013-07-17 17:43:00,86.2,77.7,30.05,NW,324,0.0,1.0,76,0.00,,,0.00,56.0,meteohub,2013-07-17 21:43:00,
2013-07-17 17:49:00,86.4,77.5,30.05,NW,324,0.0,0.0,75,0.00,,,0.00,84.0,meteohub,2013-07-17 21:49:00,
2013-07-17 17:54:00,86.4,77.5,30.05,NW,324,0.0,0.0,75,0.00,,,0.00,58.0,meteohub,2013-07-17 21:54:00,
2013-07-17 17:59:00,86.4,76.6,30.04,NW,324,0.0,0.0,73,0.00,,,0.00,53.0,meteohub,2013-07-17 21:59:00,
2013-07-17 18:04:00,86.5,77.7,30.04,NW,324,0.0,0.0,75,0.00,,,0.00,51.0,meteohub,2013-07-17 22:04:00,
2013-07-17 18:09:00,86.4,77.5,30.05,NW,324,0.0,0.0,75,0.00,,,0.00,49.0,meteohub,2013-07-17 22:09:00,
2013-07-17 18:14:00,86.4,77.9,30.05,NW,324,0.0,0.0,76,0.00,,,0.00,76.0,meteohub,2013-07-17 22:14:00,
2013-07-17 18:19:00,86.2,77.7,30.05,NW,324,0.0,0.0,76,0.00,,,0.00,49.0,meteohub,2013-07-17 22:19:00,
2013-07-17 18:24:00,85.8,77.7,30.05,NW,324,0.0,0.0,77,0.00,,,0.00,51.0,meteohub,2013-07-17 22:24:00,
2013-07-17 18:29:00,85.6,77.9,30.05,NW,324,0.0,0.0,78,0.00,,,0.00,56.0,meteohub,2013-07-17 22:29:00,
2013-07-17 18:34:00,85.5,78.3,30.05,NW,324,0.0,0.0,79,0.00,,,0.00,63.0,meteohub,2013-07-17 22:34:00,
2013-07-17 18:39:00,85.3,78.4,30.05,NW,324,0.0,0.0,80,0.00,,,0.00,56.0,meteohub,2013-07-17 22:39:00,
2013-07-17 18:45:00,85.3,78.8,30.06,NW,324,0.0,0.0,81,0.00,,,0.00,53.0,meteohub,2013-07-17 22:45:00,
2013-07-17 18:50:00,85.1,78.3,30.06,NW,324,0.0,0.0,80,0.00,,,0.00,47.0,meteohub,2013-07-17 22:50:00,
2013-07-17 18:55:00,84.9,78.1,30.06,NW,324,0.0,0.0,80,0.00,,,0.00,44.0,meteohub,2013-07-17 22:55:00,
2013-07-17 19:00:00,84.7,77.9,30.05,NW,324,0.0,0.0,80,0.00,,,0.00,33.0,meteohub,2013-07-17 23:00:00,
2013-07-17 19:05:00,84.6,77.7,30.05,NW,324,0.0,0.0,80,0.00,,,0.00,28.0,meteohub,2013-07-17 23:05:00,
2013-07-17 19:10:00,84.6,78.1,30.05,NW,324,0.0,0.0,81,0.00,,,0.00,26.0,meteohub,2013-07-17 23:10:00,
2013-07-17 19:15:00,84.2,77.7,30.05,NW,324,0.0,0.0,81,0.00,,,0.00,26.0,meteohub,2013-07-17 23:15:00,
2013-07-17 19:20:00,84.0,77.9,30.05,NW,324,0.0,0.0,82,0.00,,,0.00,25.0,meteohub,2013-07-17 23:20:00,
2013-07-17 19:25:00,83.8,77.4,30.05,NW,324,0.0,0.0,81,0.00,,,0.00,23.0,meteohub,2013-07-17 23:25:00,
2013-07-17 19:30:00,83.7,77.5,30.05,NW,324,0.0,0.0,82,0.00,,,0.00,19.0,meteohub,2013-07-17 23:30:00,
2013-07-17 19:35:00,83.5,77.4,30.05,NW,324,0.0,0.0,82,0.00,,,0.00,16.0,meteohub,2013-07-17 23:35:00,
2013-07-17 19:40:00,83.1,77.4,30.05,NW,324,0.0,0.0,83,0.00,,,0.00,12.0,meteohub,2013-07-17 23:40:00,
2013-07-17 19:46:00,82.9,77.2,30.05,NW,324,0.0,0.0,83,0.00,,,0.00,9.0,meteohub,2013-07-17 23:46:00,
2013-07-17 19:51:00,82.8,77.0,30.04,NW,324,0.0,0.0,83,0.00,,,0.00,5.0,meteohub,2013-07-17 23:51:00,
2013-07-17 19:56:00,82.6,77.2,30.04,NW,324,0.0,0.0,84,0.00,,,0.00,5.0,meteohub,2013-07-17 23:56:00,
2013-07-17 20:01:00,82.0,76.3,30.04,NW,324,0.0,0.0,83,0.00,,,0.00,0.0,meteohub,2013-07-18 00:01:00,
2013-07-17 20:06:00,81.9,76.1,30.04,NW,324,0.0,0.0,83,0.00,,,0.00,0.0,meteohub,2013-07-18 00:06:00,
2013-07-17 20:11:00,81.7,75.6,30.04,NW,324,0.0,0.0,82,0.00,,,0.00,0.0,meteohub,2013-07-18 00:11:00,
2013-07-17 20:16:00,81.5,75.0,30.04,NW,324,0.0,0.0,81,0.00,,,0.00,0.0,meteohub,2013-07-18 00:16:00,
2013-07-17 20:21:00,81.1,74.7,30.04,NW,324,0.0,0.0,81,0.00,,,0.00,0.0,meteohub,2013-07-18 00:21:00,
2013-07-17 20:26:00,81.0,74.1,30.03,NW,324,0.0,0.0,80,0.00,,,0.00,0.0,meteohub,2013-07-18 00:26:00,
2013-07-17 20:31:00,80.8,74.5,30.04,NW,324,0.0,0.0,81,0.00,,,0.00,0.0,meteohub,2013-07-18 00:31:00,
2013-07-17 20:36:00,80.6,73.4,30.04,NW,324,0.0,0.0,79,0.00,,,0.00,0.0,meteohub,2013-07-18 00:36:00,
2013-07-17 20:41:00,80.4,73.8,30.04,NW,324,0.0,0.0,80,0.00,,,0.00,0.0,meteohub,2013-07-18 00:41:00,
2013-07-17 20:47:00,80.2,73.6,30.04,NW,324,0.0,0.0,80,0.00,,,0.00,0.0,meteohub,2013-07-18 00:47:00,
2013-07-17 20:52:00,80.1,73.0,30.04,NW,324,0.0,0.0,79,0.00,,,0.00,0.0,meteohub,2013-07-18 00:52:00,
2013-07-17 20:57:00,80.1,72.5,30.04,NW,324,0.0,0.0,78,0.00,,,0.00,0.0,meteohub,2013-07-18 00:57:00,
2013-07-17 21:02:00,80.1,72.5,30.04,NW,324,0.0,0.0,78,0.00,,,0.00,0.0,meteohub,2013-07-18 01:02:00,
2013-07-17 21:07:00,80.2,72.0,30.04,NW,324,0.0,0.0,76,0.00,,,0.00,0.0,meteohub,2013-07-18 01:07:00,
2013-07-17 21:12:00,80.2,72.3,30.05,NW,324,0.0,0.0,77,0.00,,,0.00,0.0,meteohub,2013-07-18 01:12:00,
2013-07-17 21:17:00,80.2,72.7,30.06,NW,324,0.0,0.0,78,0.00,,,0.00,0.0,meteohub,2013-07-18 01:17:00,
2013-07-17 21:22:00,80.1,72.1,30.06,NW,324,0.0,0.0,77,0.00,,,0.00,0.0,meteohub,2013-07-18 01:22:00,
2013-07-17 21:27:00,80.1,72.1,30.06,NW,324,0.0,0.0,77,0.00,,,0.00,0.0,meteohub,2013-07-18 01:27:00,
2013-07-17 21:32:00,80.1,72.5,30.06,NW,324,0.0,0.0,78,0.00,,,0.00,0.0,meteohub,2013-07-18 01:32:00,
2013-07-17 21:37:00,79.9,72.9,30.05,NW,324,0.0,0.0,79,0.00,,,0.00,0.0,meteohub,2013-07-18 01:37:00,
2013-07-17 21:42:00,79.9,72.3,30.05,NW,324,0.0,0.0,78,0.00,,,0.00,0.0,meteohub,2013-07-18 01:42:00,
2013-07-17 21:47:00,79.9,72.9,30.05,NW,324,0.0,0.0,79,0.00,,,0.00,0.0,meteohub,2013-07-18 01:47:00,
2013-07-17 21:52:00,79.7,72.1,30.05,NW,324,0.0,0.0,78,0.00,,,0.00,0.0,meteohub,2013-07-18 01:52:00,
2013-07-17 21:57:00,79.7,72.7,30.05,NW,324,0.0,0.0,79,0.00,,,0.00,0.0,meteohub,2013-07-18 01:57:00,
2013-07-17 22:02:00,79.5,72.5,30.05,NW,323,0.0,0.0,79,0.00,,,0.00,0.0,meteohub,2013-07-18 02:02:00,
2013-07-17 22:07:00,79.3,72.0,30.05,NW,323,0.0,0.0,78,0.00,,,0.00,0.0,meteohub,2013-07-18 02:07:00,
2013-07-17 22:12:00,79.3,72.0,30.05,NW,323,0.0,0.0,78,0.00,,,0.00,0.0,meteohub,2013-07-18 02:12:00,
2013-07-17 22:17:00,79.3,72.3,30.05,NW,323,0.0,0.0,79,0.00,,,0.00,0.0,meteohub,2013-07-18 02:17:00,
2013-07-17 22:22:00,79.3,72.3,30.04,NW,323,0.0,0.0,79,0.00,,,0.00,0.0,meteohub,2013-07-18 02:22:00,
2013-07-17 22:27:00,79.3,72.0,30.04,NW,323,0.0,0.0,78,0.00,,,0.00,0.0,meteohub,2013-07-18 02:27:00,
2013-07-17 22:32:00,79.3,72.3,30.04,NW,323,0.0,0.0,79,0.00,,,0.00,0.0,meteohub,2013-07-18 02:32:00,
2013-07-17 22:37:00,79.2,72.1,30.04,NW,323,0.0,0.0,79,0.00,,,0.00,0.0,meteohub,2013-07-18 02:37:00,
2013-07-17 22:42:00,79.2,71.8,30.04,NW,323,0.0,0.0,78,0.00,,,0.00,0.0,meteohub,2013-07-18 02:42:00,
2013-07-17 22:47:00,79.2,72.1,30.04,NW,323,0.0,0.0,79,0.00,,,0.00,0.0,meteohub,2013-07-18 02:47:00,
2013-07-17 22:52:00,79.2,72.1,30.04,NW,323,0.0,0.0,79,0.00,,,0.00,0.0,meteohub,2013-07-18 02:52:00,
2013-07-17 22:57:00,79.0,72.0,30.04,NW,323,0.0,0.0,79,0.00,,,0.00,0.0,meteohub,2013-07-18 02:57:00,
2013-07-17 23:02:00,79.0,72.3,30.04,NW,323,0.0,0.0,80,0.00,,,0.00,0.0,meteohub,2013-07-18 03:02:00,
2013-07-17 23:07:00,79.0,72.7,30.05,NW,323,0.0,0.0,81,0.00,,,0.00,0.0,meteohub,2013-07-18 03:07:00,
2013-07-17 23:12:00,78.8,72.1,30.04,NW,323,0.0,0.0,80,0.00,,,0.00,0.0,meteohub,2013-07-18 03:12:00,
2013-07-17 23:17:00,78.6,72.3,30.04,NW,323,0.0,0.0,81,0.00,,,0.00,0.0,meteohub,2013-07-18 03:17:00,
2013-07-17 23:22:00,78.6,72.0,30.04,NW,323,0.0,0.0,80,0.00,,,0.00,0.0,meteohub,2013-07-18 03:22:00,
2013-07-17 23:27:00,78.6,72.3,30.04,NW,323,0.0,0.0,81,0.00,,,0.00,0.0,meteohub,2013-07-18 03:27:00,
2013-07-17 23:32:00,78.6,72.3,30.05,NW,323,0.0,0.0,81,0.00,,,0.00,0.0,meteohub,2013-07-18 03:32:00,
2013-07-17 23:37:00,78.4,72.5,30.05,NW,323,0.0,0.0,82,0.00,,,0.00,0.0,meteohub,2013-07-18 03:37:00,
2013-07-17 23:42:00,78.4,72.5,30.05,NW,323,0.0,0.0,82,0.00,,,0.00,0.0,meteohub,2013-07-18 03:42:00,
2013-07-17 23:47:00,78.3,72.3,30.05,NW,323,0.0,0.0,82,0.00,,,0.00,0.0,meteohub,2013-07-18 03:47:00,
2013-07-17 23:52:00,78.3,72.3,30.05,NW,323,0.0,0.0,82,0.00,,,0.00,0.0,meteohub,2013-07-18 03:52:00,
2013-07-17 23:57:00,78.3,72.7,30.05,NW,323,0.0,0.0,83,0.00,,,0.00,0.0,meteohub,2013-07-18 03:57:00,